createdAt,value
2018-03-23T00:03:42.442Z,21.67
2018-03-23T00:08:45.130Z,21.30
2018-03-23T00:13:47.698Z,17.30
2018-03-23T00:18:50.173Z,20.27
2018-03-23T00:23:52.701Z,19.07
2018-03-23T00:28:55.198Z,19.30
2018-03-23T00:33:57.710Z,21.07
2018-03-23T00:39:00.166Z,21.47
2018-03-23T00:44:02.665Z,19.80
2018-03-23T00:49:05.169Z,18.97
2018-03-23T00:54:07.656Z,16.30
2018-03-23T00:59:10.133Z,14.47
2018-03-23T01:04:12.602Z,16.50
2018-03-23T01:09:15.176Z,15.97
2018-03-23T01:14:17.749Z,15.83
2018-03-23T01:19:20.247Z,17.93
2018-03-23T01:24:22.801Z,14.97
2018-03-23T01:29:25.345Z,15.70
2018-03-23T01:34:27.816Z,16.20
2018-03-23T01:39:30.273Z,16.30
2018-03-23T01:44:32.729Z,16.87
2018-03-23T01:49:35.207Z,16.47
2018-03-23T01:54:37.686Z,15.63
2018-03-23T01:59:40.159Z,15.70
2018-03-23T02:04:42.637Z,14.63
2018-03-23T02:09:45.145Z,15.93
2018-03-23T02:14:48.452Z,13.70
2018-03-23T02:19:50.958Z,12.27
2018-03-23T02:24:53.420Z,11.70
2018-03-23T02:29:55.880Z,11.17
2018-03-23T02:34:58.393Z,11.80
2018-03-23T02:40:00.888Z,13.20
2018-03-23T02:45:03.366Z,12.30
2018-03-23T02:50:05.853Z,13.07
2018-03-23T02:55:08.307Z,15.00
2018-03-23T03:00:10.769Z,13.97
2018-03-23T03:05:13.269Z,14.67
2018-03-23T03:10:15.778Z,15.43
2018-03-23T03:15:18.258Z,15.87
2018-03-23T03:20:20.748Z,15.47
2018-03-23T03:25:23.236Z,15.73
2018-03-23T03:30:25.734Z,16.40
2018-03-23T03:35:28.224Z,15.17
2018-03-23T03:40:31.669Z,16.27
2018-03-23T03:45:34.139Z,16.30
2018-03-23T03:50:36.635Z,17.63
2018-03-23T03:55:39.107Z,16.70
2018-03-23T04:00:41.572Z,17.87
2018-03-23T04:05:44.088Z,17.77
2018-03-23T04:10:46.642Z,16.40
2018-03-23T04:15:49.178Z,15.63
2018-03-23T04:20:51.682Z,19.67
2018-03-23T04:25:54.229Z,16.60
2018-03-23T04:30:56.677Z,18.10
2018-03-23T04:35:59.225Z,16.40
2018-03-23T04:41:01.700Z,18.47
2018-03-23T04:46:04.215Z,15.90
2018-03-23T04:51:06.700Z,17.73
2018-03-23T04:56:09.143Z,19.87
2018-03-23T05:01:11.610Z,16.67
2018-03-23T05:06:14.105Z,17.07
2018-03-23T05:11:16.718Z,18.60
2018-03-23T05:16:19.352Z,20.83
2018-03-23T05:21:21.893Z,20.73
2018-03-23T05:26:24.427Z,19.70
2018-03-23T05:31:26.888Z,19.07
2018-03-23T05:36:29.367Z,19.93
2018-03-23T05:41:32.591Z,20.67
2018-03-23T05:46:35.066Z,20.73
2018-03-23T05:51:37.866Z,17.07
2018-03-23T05:56:40.368Z,19.43
2018-03-23T06:01:42.856Z,18.00
2018-03-23T06:06:45.448Z,17.10
2018-03-23T06:11:47.987Z,19.57
2018-03-23T06:16:50.474Z,16.50
2018-03-23T06:21:53.036Z,16.33
2018-03-23T06:26:55.516Z,13.87
2018-03-23T06:31:58.004Z,13.00
2018-03-23T06:37:00.492Z,13.17
2018-03-23T06:42:02.971Z,12.37
2018-03-23T06:47:05.461Z,13.03
2018-03-23T06:52:07.965Z,14.43
2018-03-23T06:57:10.471Z,12.43
2018-03-23T07:02:12.948Z,13.13
2018-03-23T07:07:15.458Z,13.03
2018-03-23T07:12:17.944Z,11.87
2018-03-23T07:17:20.517Z,12.80
2018-03-23T07:22:23.216Z,12.03
2018-03-23T07:27:25.753Z,11.27
2018-03-23T07:32:28.184Z,12.00
2018-03-23T07:37:30.641Z,13.90
2018-03-23T07:42:33.107Z,12.43
2018-03-23T07:47:35.564Z,12.43
2018-03-23T07:52:38.040Z,13.03
2018-03-23T07:57:41.145Z,12.20
2018-03-23T08:02:43.689Z,14.20
2018-03-23T08:07:46.420Z,11.63
2018-03-23T08:12:48.905Z,12.17
2018-03-23T08:17:51.415Z,12.53
2018-03-23T08:22:53.927Z,12.30
2018-03-23T08:27:56.414Z,11.83
2018-03-23T08:32:58.933Z,10.90
2018-03-23T08:38:01.403Z,12.13
2018-03-23T08:43:03.854Z,11.90
2018-03-23T08:48:06.355Z,12.90
2018-03-23T08:53:08.820Z,12.53
2018-03-23T08:58:11.322Z,12.00
2018-03-23T09:03:14.865Z,11.50
2018-03-23T09:08:17.425Z,10.87
2018-03-23T09:18:45.766Z,12.93
2018-03-23T09:23:48.278Z,10.83
2018-03-23T09:28:50.738Z,11.13
2018-03-23T09:33:53.243Z,11.30
2018-03-23T09:38:55.694Z,10.53
2018-03-23T09:43:58.158Z,11.50
2018-03-23T09:49:00.635Z,10.67
2018-03-23T09:54:03.112Z,10.63
2018-03-23T09:59:05.567Z,11.23
2018-03-23T10:04:08.177Z,11.00
2018-03-23T10:09:10.558Z,9.63
2018-03-23T10:14:13.021Z,8.83
2018-03-23T10:19:15.521Z,7.60
2018-03-23T10:24:18.034Z,9.53
2018-03-23T10:29:20.507Z,8.73
2018-03-23T10:34:23.025Z,7.93
2018-03-23T10:39:25.502Z,7.70
2018-03-23T10:44:27.977Z,14.47
2018-03-23T10:49:30.494Z,16.63
2018-03-23T10:54:33.035Z,16.23
2018-03-23T10:59:35.525Z,15.30
2018-03-23T11:04:38.005Z,15.93
2018-03-23T11:09:40.488Z,17.03
2018-03-23T11:14:42.989Z,15.13
2018-03-23T11:19:45.477Z,17.53
2018-03-23T11:24:47.975Z,15.93
2018-03-23T11:29:50.462Z,17.50
2018-03-23T11:34:53.182Z,18.93
2018-03-23T11:39:55.697Z,18.07
2018-03-23T11:44:58.155Z,21.07
2018-03-23T11:50:00.643Z,17.40
2018-03-23T11:55:03.126Z,16.83
2018-03-23T12:00:05.571Z,16.27
2018-03-23T12:05:08.125Z,16.60
2018-03-23T12:10:10.685Z,16.57
2018-03-23T12:15:13.174Z,16.03
2018-03-23T12:20:18.150Z,18.37
2018-03-23T12:25:21.829Z,19.57
2018-03-23T12:30:24.490Z,16.30
2018-03-23T12:35:29.231Z,17.50
2018-03-23T12:40:31.748Z,16.40
2018-03-23T12:45:34.284Z,15.73
2018-03-23T12:50:36.703Z,14.43
2018-03-23T12:55:39.169Z,13.60
2018-03-23T13:00:41.660Z,14.10
2018-03-23T13:05:44.163Z,16.13
2018-03-23T13:10:47.050Z,13.63
2018-03-23T13:15:49.563Z,14.63
2018-03-23T13:20:52.110Z,11.10
2018-03-23T13:25:54.587Z,12.70
2018-03-23T13:30:57.065Z,11.13
2018-03-23T13:35:59.559Z,11.83
2018-03-23T13:41:02.039Z,12.43
2018-03-23T13:46:05.882Z,12.77
2018-03-23T13:51:10.735Z,12.87
2018-03-23T13:56:17.691Z,12.80
2018-03-23T14:01:27.175Z,12.20
2018-03-23T14:06:32.163Z,13.10
2018-03-23T14:11:37.445Z,13.10
2018-03-23T14:16:43.307Z,14.17
2018-03-23T14:21:48.428Z,12.93
2018-03-23T14:26:51.041Z,13.33
2018-03-23T14:31:55.373Z,15.00
2018-03-23T14:36:59.702Z,15.03
2018-03-23T14:42:02.236Z,15.40
2018-03-23T14:47:04.695Z,15.13
2018-03-23T14:52:10.299Z,16.73
2018-03-23T14:57:14.879Z,16.30
2018-03-23T15:02:18.719Z,17.63
2018-03-23T15:07:23.304Z,16.40
2018-03-23T15:12:25.771Z,14.97
2018-03-23T15:17:30.578Z,15.63
2018-03-23T15:22:35.498Z,16.23
2018-03-23T15:27:39.470Z,16.83
2018-03-23T15:32:44.165Z,15.47
2018-03-23T15:37:50.022Z,15.30
2018-03-23T15:42:54.306Z,17.83
2018-03-23T15:48:00.514Z,16.40
2018-03-23T15:53:06.171Z,16.10
2018-03-23T15:58:08.996Z,18.87
2018-03-23T16:03:11.458Z,16.70
2018-03-23T16:08:14.104Z,15.43
2018-03-23T16:13:16.663Z,16.30
2018-03-23T16:18:31.662Z,18.77
2018-03-23T16:23:34.081Z,17.63
2018-03-23T16:28:36.563Z,17.93
2018-03-23T16:33:39.065Z,18.13
2018-03-23T16:38:42.224Z,17.83
2018-03-23T16:43:45.182Z,15.57
2018-03-23T16:48:48.325Z,17.40
2018-03-23T16:53:50.871Z,16.37
2018-03-23T16:58:53.342Z,17.27
2018-03-23T17:03:55.866Z,18.63
2018-03-23T17:08:59.301Z,17.60
2018-03-23T17:14:01.779Z,17.53
2018-03-23T17:19:04.246Z,17.80
2018-03-23T17:29:30.904Z,17.90
2018-03-23T17:34:33.401Z,19.07
2018-03-23T17:39:35.898Z,18.43
2018-03-23T17:44:38.360Z,20.30
2018-03-23T17:49:40.845Z,19.57
2018-03-23T17:54:43.411Z,18.70
2018-03-23T17:59:46.007Z,21.63
2018-03-23T18:04:48.574Z,21.27
2018-03-23T18:09:52.244Z,22.43
2018-03-23T18:14:54.740Z,22.93
2018-03-23T18:19:57.237Z,23.70
2018-03-23T18:24:59.857Z,21.07
2018-03-23T18:30:02.326Z,22.20
2018-03-23T18:35:04.984Z,20.57
2018-03-23T18:40:08.042Z,23.00
2018-03-23T18:45:11.468Z,21.27
2018-03-23T18:50:16.694Z,24.83
2018-03-23T18:55:19.812Z,23.40
2018-03-23T19:00:22.857Z,24.67
2018-03-23T19:05:25.552Z,26.27
2018-03-23T19:10:28.506Z,26.07
2018-03-23T19:15:31.295Z,23.93
2018-03-23T19:20:34.076Z,24.07
2018-03-23T19:25:36.600Z,24.67
2018-03-23T19:30:40.208Z,23.50
2018-03-23T19:35:42.684Z,23.23
2018-03-23T19:40:45.184Z,22.10
2018-03-23T19:45:47.678Z,24.43
2018-03-23T19:50:50.162Z,24.43
2018-03-23T19:55:52.626Z,23.50
2018-03-23T20:00:58.049Z,22.00
2018-03-23T20:06:01.523Z,23.90
2018-03-23T20:11:06.142Z,22.77
2018-03-23T20:16:10.932Z,21.63
2018-03-23T20:21:18.261Z,23.07
2018-03-23T20:26:23.244Z,23.80
2018-03-23T20:31:32.695Z,22.50
2018-03-23T20:36:37.650Z,25.63
2018-03-23T20:41:41.039Z,23.23
2018-03-23T20:46:46.378Z,22.73
2018-03-23T20:51:51.435Z,20.30
2018-03-23T20:56:56.670Z,19.27
2018-03-23T21:02:00.679Z,24.17
2018-03-23T21:07:03.603Z,23.57
2018-03-23T21:12:06.095Z,23.73
2018-03-23T21:17:08.676Z,21.47
2018-03-23T21:22:11.247Z,23.03
2018-03-23T21:27:14.497Z,21.23
2018-03-23T21:32:19.255Z,22.13
2018-03-23T21:37:24.037Z,22.10
2018-03-23T21:42:29.593Z,22.83
2018-03-23T21:47:34.320Z,21.83
2018-03-23T21:52:37.291Z,21.63
2018-03-23T21:57:40.030Z,21.33
2018-03-23T22:02:42.750Z,22.63
2018-03-23T22:07:45.303Z,22.87
2018-03-23T22:12:47.896Z,21.20
2018-03-23T22:17:50.386Z,21.90
2018-03-23T22:22:53.165Z,23.83
2018-03-23T22:27:55.690Z,23.43
2018-03-23T22:32:58.152Z,22.37
2018-03-23T22:38:01.323Z,22.20
2018-03-23T22:43:03.796Z,22.50
2018-03-23T22:48:06.383Z,23.23
2018-03-23T22:53:09.052Z,23.27
2018-03-23T22:58:11.555Z,23.97
2018-03-23T23:03:14.100Z,20.80
2018-03-23T23:08:16.795Z,23.13
2018-03-23T23:13:19.379Z,23.77
2018-03-23T23:18:21.883Z,25.23
2018-03-23T23:23:24.381Z,21.27
2018-03-23T23:28:27.020Z,22.60
2018-03-23T23:33:29.556Z,22.57
2018-03-23T23:38:32.088Z,21.67
2018-03-23T23:43:34.862Z,24.90
2018-03-23T23:48:37.360Z,21.70
2018-03-23T23:53:39.881Z,20.20
2018-03-23T23:58:42.385Z,21.53
